Time;durP1;ratioP1;P1;durP2;ratioP2;P2;SDS_P1;SDS_P2;PMS_P1;PMS_P2;Temp;Humidity;BMP_temperature;BMP_pressure;BME280_temperature;BME280_humidity;BME280_pressure;Samples;Min_cycle;Max_cycle;Signal;HPM_P1;HPM_P2
2022/06/07 00:00:06;;;;;;;5.53;3.28;;;19.30;99.90;;;;;;4897726;29;20226;-85
2022/06/07 00:02:35;;;;;;;3.20;3.00;;;19.30;99.90;;;;;;4897714;29;20298;-85
2022/06/07 00:05:05;;;;;;;5.28;3.65;;;19.30;99.90;;;;;;4897646;29;20237;-84
2022/06/07 00:07:36;;;;;;;3.60;3.22;;;19.30;99.90;;;;;;4897174;29;20199;-84
2022/06/07 00:10:05;;;;;;;3.17;2.88;;;19.20;99.90;;;;;;4897314;29;20199;-84
2022/06/07 00:12:35;;;;;;;3.35;3.08;;;19.20;99.90;;;;;;4897654;29;20203;-84
2022/06/07 00:15:04;;;;;;;3.83;3.53;;;19.20;99.90;;;;;;4897873;29;20302;-85
2022/06/07 00:17:33;;;;;;;3.00;2.80;;;19.20;99.90;;;;;;4897984;29;20215;-85
2022/06/07 00:20:02;;;;;;;3.47;3.15;;;19.10;99.90;;;;;;4900057;29;20243;-84
2022/06/07 00:22:30;;;;;;;3.33;3.08;;;19.10;99.90;;;;;;4900655;29;20203;-84
2022/06/07 00:24:58;;;;;;;3.13;2.92;;;19.10;99.90;;;;;;4900271;29;20196;-85
2022/06/07 00:27:27;;;;;;;3.08;2.78;;;19.10;99.90;;;;;;4900859;29;20211;-85
2022/06/07 00:29:58;;;;;;;6.45;3.63;;;19.10;99.90;;;;;;4900984;29;20195;-84
2022/06/07 00:32:27;;;;;;;3.20;2.90;;;19.10;99.90;;;;;;4900362;29;20203;-84
2022/06/07 00:34:55;;;;;;;4.57;2.80;;;19.00;99.90;;;;;;4900799;29;20203;-84
2022/06/07 00:37:23;;;;;;;3.33;3.13;;;19.00;99.90;;;;;;4900558;29;20234;-84
2022/06/07 00:39:52;;;;;;;3.45;3.15;;;19.00;99.90;;;;;;4900312;29;20223;-84
2022/06/07 00:42:20;;;;;;;2.65;2.45;;;19.00;99.90;;;;;;4900674;29;20239;-84
2022/06/07 00:44:49;;;;;;;2.85;2.65;;;19.00;99.90;;;;;;4900854;29;20238;-84
2022/06/07 00:47:20;;;;;;;16.33;3.30;;;18.90;99.90;;;;;;4900570;29;20298;-85
2022/06/07 00:49:53;;;;;;;3.40;3.10;;;18.90;99.90;;;;;;4900843;29;20306;-85
2022/06/07 00:52:25;;;;;;;3.45;3.25;;;18.90;99.90;;;;;;4900264;29;20214;-85
2022/06/07 00:54:53;;;;;;;3.65;3.38;;;18.90;99.90;;;;;;4900375;29;20251;-85
2022/06/07 00:57:22;;;;;;;3.53;3.22;;;18.90;99.90;;;;;;4900215;29;20246;-85
2022/06/07 00:59:51;;;;;;;3.60;3.33;;;18.90;99.90;;;;;;4899627;29;20235;-85
2022/06/07 01:02:26;;;;;;;3.70;3.35;;;18.90;99.90;;;;;;4900446;29;20367;-89
2022/06/07 01:05:03;;;;;;;3.90;3.60;;;18.80;99.90;;;;;;4899952;29;20302;-88
2022/06/07 01:13:06;;;;;;;3.30;3.00;;;18.70;99.90;;;;;;4900130;29;20207;-87
2022/06/07 01:15:39;;;;;;;3.08;2.88;;;18.70;99.90;;;;;;4900271;29;20199;-88
2022/06/07 01:18:13;;;;;;;3.35;3.03;;;18.60;99.90;;;;;;4900001;29;20269;-88
2022/06/07 01:20:41;;;;;;;3.22;3.00;;;18.60;99.90;;;;;;4899849;29;20211;-88
2022/06/07 01:23:19;;;;;;;4.38;3.47;;;18.60;99.90;;;;;;4899710;29;20207;-88
2022/06/07 01:25:48;;;;;;;3.92;3.53;;;18.60;99.90;;;;;;4899739;29;20206;-88
2022/06/07 01:28:21;;;;;;;3.35;3.05;;;18.60;99.90;;;;;;4899497;29;20227;-89
2022/06/07 01:31:00;;;;;;;3.13;2.92;;;18.60;99.90;;;;;;4899379;29;20216;-88
2022/06/07 01:33:33;;;;;;;3.20;2.90;;;18.50;99.90;;;;;;4899231;29;20255;-88
2022/06/07 01:36:11;;;;;;;3.33;3.03;;;18.50;99.90;;;;;;4899661;29;20207;-88
2022/06/07 01:41:53;;;;;;;4.25;3.45;;;18.50;99.90;;;;;;4899328;29;20226;-88
2022/06/07 01:41:53;;;;;;;3.65;2.92;;;18.50;99.90;;;;;;4891211;29;20219;-88
2022/06/07 01:44:23;;;;;;;3.85;3.40;;;18.40;99.90;;;;;;4898964;29;20210;-88
2022/06/07 01:46:56;;;;;;;4.20;3.10;;;18.40;99.90;;;;;;4899676;29;20211;-88
2022/06/07 01:49:25;;;;;;;3.35;3.05;;;18.40;99.90;;;;;;4881554;29;20228;-88
2022/06/07 01:51:54;;;;;;;2.63;2.42;;;18.40;99.90;;;;;;4888022;29;20209;-88
2022/06/07 01:54:25;;;;;;;2.65;2.45;;;18.40;99.90;;;;;;4898954;29;20220;-88
2022/06/07 01:56:53;;;;;;;3.33;3.03;;;18.30;99.90;;;;;;4899732;29;20200;-88
2022/06/07 01:59:22;;;;;;;3.40;3.03;;;18.40;99.90;;;;;;4898606;29;20287;-88
2022/06/07 02:01:55;;;;;;;2.70;2.50;;;18.30;99.90;;;;;;4898851;29;20231;-88
2022/06/07 02:04:24;;;;;;;4.40;2.60;;;18.30;99.90;;;;;;4898788;29;20207;-88
2022/06/07 02:06:53;;;;;;;2.88;2.67;;;18.30;99.90;;;;;;4899031;29;20207;-88
2022/06/07 02:09:29;;;;;;;2.80;2.60;;;18.30;99.90;;;;;;4898897;29;20229;-88
2022/06/07 02:11:58;;;;;;;2.63;2.42;;;18.30;99.90;;;;;;4898746;29;20202;-87
2022/06/07 02:14:31;;;;;;;3.47;3.22;;;18.30;99.90;;;;;;4898717;29;20208;-88
2022/06/07 02:16:59;;;;;;;3.20;3.00;;;18.20;99.90;;;;;;4898680;29;20203;-87
2022/06/07 02:19:28;;;;;;;3.47;3.17;;;18.30;99.90;;;;;;4898440;29;20234;-88
2022/06/07 02:22:03;;;;;;;3.22;3.03;;;18.20;99.90;;;;;;4898697;29;20207;-88
2022/06/07 02:24:34;;;;;;;8.48;3.60;;;18.20;99.90;;;;;;4899064;29;20223;-88
2022/06/07 02:27:07;;;;;;;3.17;2.90;;;18.20;99.90;;;;;;4898760;29;20275;-87
2022/06/07 02:29:40;;;;;;;3.60;3.30;;;18.20;99.90;;;;;;4898455;29;20274;-87
2022/06/07 02:32:13;;;;;;;3.33;2.90;;;18.20;99.90;;;;;;4898314;29;20206;-87
2022/06/07 02:34:53;;;;;;;2.83;2.63;;;18.20;99.90;;;;;;4898691;29;20238;-88
2022/06/07 02:37:22;;;;;;;3.25;2.95;;;18.20;99.90;;;;;;4898446;29;20211;-87
2022/06/07 02:39:53;;;;;;;4.13;3.20;;;18.10;99.90;;;;;;4898472;29;20277;-88
2022/06/07 02:42:28;;;;;;;2.70;2.50;;;18.20;99.90;;;;;;4898410;29;20211;-88
2022/06/07 02:44:59;;;;;;;2.72;2.53;;;18.10;99.90;;;;;;4899729;29;20211;-88
2022/06/07 02:47:31;;;;;;;3.17;2.88;;;18.10;99.90;;;;;;4898565;29;20219;-88
2022/06/07 02:50:02;;;;;;;2.83;2.63;;;18.10;99.90;;;;;;4898847;29;20195;-87
2022/06/07 02:52:47;;;;;;;3.63;2.88;;;18.10;99.90;;;;;;4898096;29;20213;-87
2022/06/07 02:55:20;;;;;;;3.08;2.78;;;18.10;99.90;;;;;;4879374;29;20215;-87
2022/06/07 03:00:34;;;;;;;3.17;2.88;;;18.00;99.90;;;;;;4895271;29;20445;-88
2022/06/07 03:03:04;;;;;;;2.75;2.55;;;18.00;99.90;;;;;;4897729;29;20294;-88
2022/06/07 03:05:38;;;;;;;5.85;3.78;;;18.00;99.90;;;;;;4899262;29;20234;-88
2022/06/07 03:08:36;;;;;;;3.78;3.47;;;18.00;99.90;;;;;;4897948;29;20223;-87
2022/06/07 03:11:14;;;;;;;3.45;3.15;;;18.00;99.90;;;;;;4876438;29;20199;-88
2022/06/07 03:13:47;;;;;;;2.38;2.25;;;18.00;99.90;;;;;;4898347;29;20234;-87
2022/06/07 03:16:22;;;;;;;3.08;2.85;;;18.00;99.90;;;;;;4898358;29;20223;-87
2022/06/07 03:18:53;;;;;;;3.17;2.65;;;18.00;99.90;;;;;;4879563;29;20227;-87
2022/06/07 03:21:24;;;;;;;3.08;2.75;;;18.00;99.90;;;;;;4894348;29;20222;-86
2022/06/07 03:23:56;;;;;;;3.00;2.75;;;18.00;99.90;;;;;;4897927;29;20211;-88
2022/06/07 03:26:30;;;;;;;9.75;3.42;;;18.00;99.90;;;;;;4897447;29;20258;-87
2022/06/07 03:29:05;;;;;;;3.03;2.83;;;18.00;99.90;;;;;;4898007;29;20227;-87
2022/06/07 03:31:37;;;;;;;2.95;2.75;;;18.00;99.90;;;;;;4894457;29;20215;-87
2022/06/07 03:34:08;;;;;;;3.15;2.95;;;18.00;99.90;;;;;;4897925;29;20259;-87
2022/06/07 03:36:40;;;;;;;4.22;3.72;;;18.00;99.90;;;;;;4897928;29;20218;-87
2022/06/07 03:39:14;;;;;;;3.05;2.85;;;18.00;99.90;;;;;;4898159;29;20231;-88
2022/06/07 03:41:45;;;;;;;3.20;2.90;;;18.00;99.90;;;;;;4897123;29;20223;-87
2022/06/07 03:44:13;;;;;;;3.95;3.65;;;18.00;99.90;;;;;;4898103;29;20207;-87
2022/06/07 03:46:44;;;;;;;2.95;2.72;;;18.00;99.90;;;;;;4897628;29;20242;-88
2022/06/07 03:49:13;;;;;;;6.65;3.70;;;18.00;99.90;;;;;;4897800;29;20310;-87
2022/06/07 03:51:42;;;;;;;3.70;3.35;;;18.00;99.90;;;;;;4897271;29;20203;-87
2022/06/07 03:54:10;;;;;;;2.67;2.55;;;18.00;99.90;;;;;;4899697;29;20236;-87
2022/06/07 03:56:39;;;;;;;3.50;3.20;;;18.10;99.90;;;;;;4901215;29;20211;-87
2022/06/07 03:59:11;;;;;;;3.55;3.35;;;18.00;99.90;;;;;;4901290;29;20310;-87
2022/06/07 04:01:39;;;;;;;3.30;3.00;;;18.10;99.90;;;;;;4900869;29;20215;-87
2022/06/07 04:04:10;;;;;;;3.47;3.22;;;18.10;99.90;;;;;;4901506;29;20199;-87
2022/06/07 04:06:40;;;;;;;4.60;4.15;;;18.20;99.90;;;;;;4901010;29;20294;-87
2022/06/07 04:09:09;;;;;;;4.80;4.10;;;18.20;99.90;;;;;;4900761;29;20234;-87
2022/06/07 04:11:38;;;;;;;4.03;3.72;;;18.20;99.90;;;;;;4900286;29;20238;-88
2022/06/07 04:14:08;;;;;;;4.03;3.72;;;18.20;99.90;;;;;;4900661;29;20203;-88
2022/06/07 04:16:41;;;;;;;4.25;3.85;;;18.30;99.90;;;;;;4882532;29;20203;-86
2022/06/07 04:19:12;;;;;;;3.47;3.10;;;18.30;99.90;;;;;;4888924;29;20230;-87
2022/06/07 04:21:40;;;;;;;3.70;3.50;;;18.30;99.90;;;;;;4900409;29;20254;-87
2022/06/07 04:24:10;;;;;;;3.55;3.25;;;18.30;99.90;;;;;;4900421;29;20226;-91
2022/06/07 04:26:58;;;;;;;6.80;3.83;;;18.30;99.90;;;;;;4900925;29;20203;-92
2022/06/07 04:29:27;;;;;;;4.88;4.35;;;18.40;99.90;;;;;;4900369;29;20314;-91
2022/06/07 04:31:58;;;;;;;5.00;4.45;;;18.50;99.90;;;;;;4900023;29;20195;-91
2022/06/07 04:34:32;;;;;;;5.38;4.85;;;18.50;99.90;;;;;;4900922;29;20207;-92
2022/06/07 04:56:57;;;;;;;5.47;5.07;;;19.10;99.90;;;;;;4882970;29;20214;-90
2022/06/07 04:59:38;;;;;;;9.10;5.18;;;19.10;99.90;;;;;;4900417;29;20231;-94
2022/06/07 05:02:22;;;;;;;6.10;5.50;;;19.10;99.90;;;;;;4900448;29;20217;-94
2022/06/07 05:13:01;;;;;;;7.03;6.40;;;19.20;99.90;;;;;;4760616;29;20207;-96
2022/06/07 05:15:47;;;;;;;6.13;5.60;;;19.30;99.90;;;;;;4805170;29;20214;-95
2022/06/07 05:18:23;;;;;;;8.77;6.60;;;19.30;99.90;;;;;;4804725;29;20234;-96
2022/06/07 05:20:53;;;;;;;7.32;5.53;;;19.40;99.90;;;;;;4805594;29;20254;-96
2022/06/07 05:30:50;;;;;;;;;;;;;;;;;;;;;
2022/06/07 05:40:34;;;;;;;4.88;4.47;;;19.70;99.90;;;;;;5113770;23;20247;-95
2022/06/07 05:43:58;;;;;;;6.22;5.60;;;19.80;99.90;;;;;;4880342;29;20207;-95
2022/06/07 12:47:56;;;;;;;4.38;3.97;;;20.00;99.90;;;;;;4916783;29;20270;-93
2022/06/07 13:55:03;;;;;;;5.82;5.38;;;19.00;99.90;;;;;;4922244;29;20270;-94
2022/06/07 14:04:45;;;;;;;4.55;4.20;;;18.90;99.90;;;;;;4863967;29;20242;-92
2022/06/07 14:11:37;;;;;;;5.03;4.63;;;18.80;99.90;;;;;;4746869;30;20214;-93
2022/06/07 14:18:01;;;;;;;5.55;4.75;;;18.90;99.90;;;;;;4898399;29;20231;-93
2022/06/07 14:20:35;;;;;;;5.85;5.35;;;18.90;99.90;;;;;;4898091;29;20211;-92
2022/06/07 14:23:10;;;;;;;5.82;5.32;;;18.90;99.90;;;;;;4898308;29;20223;-93
2022/06/07 14:25:43;;;;;;;6.00;5.43;;;18.70;99.90;;;;;;4898097;29;20229;-93
2022/06/07 14:28:20;;;;;;;20.50;5.50;;;18.60;99.90;;;;;;4898005;29;20227;-93
2022/06/07 14:30:56;;;;;;;5.50;5.10;;;18.60;99.90;;;;;;4897759;29;20244;-94
2022/06/07 14:36:30;;;;;;;7.18;5.05;;;18.60;99.90;;;;;;4897938;29;20229;-93
2022/06/07 14:39:08;;;;;;;5.93;5.43;;;18.60;99.90;;;;;;4897843;29;20227;-94
2022/06/07 14:41:51;;;;;;;6.10;5.60;;;18.70;99.90;;;;;;4897714;29;20230;-94
2022/06/07 14:44:45;;;;;;;6.20;5.70;;;18.70;99.90;;;;;;4897845;29;20214;-94
2022/06/07 14:47:28;;;;;;;5.10;4.80;;;18.80;99.90;;;;;;4840463;29;20204;-94
2022/06/07 14:58:05;;;;;;;6.10;4.80;;;18.90;99.90;;;;;;4785662;30;20375;-95
2022/06/07 15:13:44;;;;;;;9.52;3.35;;;18.60;99.90;;;;;;4657810;30;20227;-93
2022/06/07 15:17:11;;;;;;;5.07;4.53;;;18.40;99.90;;;;;;4638581;30;20310;-93
2022/06/07 15:26:21;;;;;;;4.75;4.35;;;18.30;99.90;;;;;;4728911;30;20303;-93
2022/06/07 15:29:09;;;;;;;4.43;3.97;;;18.30;99.90;;;;;;4749945;30;20255;-94
2022/06/07 15:32:49;;;;;;;4.72;3.75;;;18.20;99.90;;;;;;4760128;30;20216;-94
2022/06/07 15:35:36;;;;;;;4.65;3.97;;;18.10;99.90;;;;;;4827542;29;20382;-92
2022/06/07 15:38:14;;;;;;;4.35;3.92;;;18.00;99.90;;;;;;4839632;29;20285;-93
2022/06/07 15:40:46;;;;;;;5.03;4.57;;;18.00;99.90;;;;;;4839366;29;20220;-93
2022/06/07 15:43:16;;;;;;;4.72;4.25;;;17.90;99.90;;;;;;4839544;29;20298;-93
2022/06/07 15:45:48;;;;;;;7.75;5.32;;;17.90;99.90;;;;;;4839470;29;20308;-92
2022/06/07 15:48:19;;;;;;;7.07;4.55;;;17.90;99.90;;;;;;4839498;29;20324;-91
2022/06/07 15:50:56;;;;;;;6.07;5.22;;;17.80;99.90;;;;;;4843664;29;20217;-94
2022/06/07 15:53:47;;;;;;;6.63;5.18;;;17.80;99.90;;;;;;4852836;29;20212;-94
2022/06/07 15:56:22;;;;;;;5.03;4.63;;;17.70;99.90;;;;;;4849244;29;20249;-94
2022/06/07 15:59:04;;;;;;;5.35;4.95;;;17.60;99.90;;;;;;4848242;29;20232;-94
2022/06/07 16:01:53;;;;;;;6.20;5.63;;;17.70;99.90;;;;;;4844249;29;20253;-94
2022/06/07 16:04:38;;;;;;;5.10;4.63;;;17.70;99.90;;;;;;4854797;29;20205;-94
2022/06/07 16:07:15;;;;;;;4.43;4.05;;;17.60;99.90;;;;;;4864110;29;20201;-93
2022/06/07 16:09:59;;;;;;;4.82;4.40;;;17.60;99.90;;;;;;4865825;29;20251;-93
2022/06/07 16:20:19;;;;;;;3.83;3.53;;;17.50;99.90;;;;;;4879040;29;20238;-94
2022/06/07 16:26:46;;;;;;;3.10;2.90;;;17.40;99.90;;;;;;4805753;30;20239;-95
2022/06/07 23:41:56;;;;;;;2.22;2.03;;;15.60;99.90;;;;;;4909139;23;20303;-96
2022/06/07 23:52:34;;;;;;;2.25;2.08;;;15.50;99.90;;;;;;4703306;30;20218;-93
